Time;durP1;ratioP1;P1;durP2;ratioP2;P2;SDS_P1;SDS_P2;PMS_P1;PMS_P2;Temp;Humidity;BMP_temperature;BMP_pressure;BME280_temperature;BME280_humidity;BME280_pressure;Samples;Min_cycle;Max_cycle;Signal;HPM_P1;HPM_P2
2023/06/17 00:01:42;;;;;;;;;;;;;;;15.03;85.15;95883.97;5063273;28;19925;-70
2023/06/17 00:04:09;;;;;;;;;;;;;;;14.93;85.93;95880.41;5060977;28;19929;-69
2023/06/17 00:06:35;;;;;;;;;;;;;;;14.85;86.69;95881.00;5069417;28;20302;-70
2023/06/17 00:09:02;;;;;;;;;;;;;;;14.71;87.63;95873.44;5068519;28;19974;-70
2023/06/17 00:11:29;;;;;;;;;;;;;;;14.69;87.73;95872.75;5069381;28;20402;-69
2023/06/17 00:13:56;;;;;;;;;;;;;;;14.56;88.69;95864.19;5066931;28;20036;-70
2023/06/17 00:16:24;;;;;;;;;;;;;;;14.48;89.48;95867.34;5070322;28;20413;-70
2023/06/17 00:18:53;;;;;;;;;;;;;;;14.55;88.96;95868.59;5070375;28;19966;-69
2023/06/17 00:21:19;;;;;;;;;;;;;;;14.55;89.06;95862.53;5065131;28;20275;-70
2023/06/17 00:23:45;;;;;;;;;;;;;;;14.49;89.80;95861.19;5070439;28;19932;-70
2023/06/17 00:26:12;;;;;;;;;;;;;;;14.52;89.47;95861.81;5063114;28;19975;-70
2023/06/17 00:28:38;;;;;;;;;;;;;;;14.52;90.00;95869.63;5068310;28;19939;-69
2023/06/17 00:31:04;;;;;;;;;;;;;;;14.57;88.90;95858.84;5068146;28;19970;-70
2023/06/17 00:33:32;;;;;;;;;;;;;;;14.51;88.00;95859.34;5064200;28;19929;-69
2023/06/17 00:35:58;;;;;;;;;;;;;;;14.30;89.43;95859.16;5066980;28;19928;-69
2023/06/17 00:38:24;;;;;;;;;;;;;;;14.44;88.19;95858.13;5070725;28;20322;-69
2023/06/17 00:40:51;;;;;;;;;;;;;;;14.37;87.71;95855.16;5071273;28;19950;-69
2023/06/17 00:43:17;;;;;;;;;;;;;;;14.36;88.76;95858.72;5067168;28;19964;-69
2023/06/17 00:45:43;;;;;;;;;;;;;;;14.21;89.93;95854.66;5068688;28;20272;-69
2023/06/17 00:48:10;;;;;;;;;;;;;;;14.11;90.58;95854.53;5071482;28;19931;-70
2023/06/17 00:50:38;;;;;;;;;;;;;;;14.09;90.72;95842.56;5065641;28;19931;-70
2023/06/17 00:53:05;;;;;;;;;;;;;;;14.10;90.93;95842.47;5067013;28;20395;-70
2023/06/17 00:55:32;;;;;;;;;;;;;;;14.00;92.48;95846.69;5069545;28;19975;-69
2023/06/17 00:57:59;;;;;;;;;;;;;;;13.90;91.90;95849.16;5073482;28;20011;-69
2023/06/17 01:00:25;;;;;;;;;;;;;;;13.87;92.63;95851.16;5071371;28;19924;-69
2023/06/17 01:02:52;;;;;;;;;;;;;;;13.83;93.12;95849.72;5066212;28;19924;-70
2023/06/17 01:05:19;;;;;;;;;;;;;;;13.91;91.79;95843.00;5070613;28;19924;-70
2023/06/17 01:07:58;;;;;;;;;;;;;;;13.94;91.70;95842.78;5073541;28;19931;-69
2023/06/17 01:10:28;;;;;;;;;;;;;;;13.87;93.00;95846.78;5074510;28;19964;-70
2023/06/17 01:12:56;;;;;;;;;;;;;;;13.76;93.50;95842.38;5070833;28;19924;-70
2023/06/17 01:15:23;;;;;;;;;;;;;;;13.71;94.33;95852.28;5071477;28;19947;-70
2023/06/17 01:17:54;;;;;;;;;;;;;;;13.77;93.93;95841.44;5066138;28;19924;-69
2023/06/17 01:20:21;;;;;;;;;;;;;;;13.69;94.89;95841.19;5066826;28;19928;-69
2023/06/17 01:22:52;;;;;;;;;;;;;;;13.58;94.74;95846.34;5071124;28;20397;-70
2023/06/17 01:25:20;;;;;;;;;;;;;;;13.43;96.93;95842.25;5071843;28;19929;-69
2023/06/17 01:27:49;;;;;;;;;;;;;;;13.33;97.39;95842.09;5073157;28;20306;-69
2023/06/17 01:30:16;;;;;;;;;;;;;;;13.18;99.44;95840.56;5068190;28;19981;-69
2023/06/17 01:32:42;;;;;;;;;;;;;;;13.19;98.57;95842.22;5070187;28;19925;-69
2023/06/17 01:35:11;;;;;;;;;;;;;;;13.20;98.76;95843.88;5073348;28;19929;-70
2023/06/17 01:37:41;;;;;;;;;;;;;;;13.11;99.75;95844.56;5073049;28;19928;-70
2023/06/17 01:40:09;;;;;;;;;;;;;;;13.11;99.68;95847.16;5070286;28;19928;-70
2023/06/17 01:42:40;;;;;;;;;;;;;;;13.27;100.00;95837.31;5070429;28;19929;-69
2023/06/17 01:45:09;;;;;;;;;;;;;;;13.35;98.66;95840.22;5068855;28;21192;-69
2023/06/17 01:47:35;;;;;;;;;;;;;;;13.38;98.30;95839.97;5064014;28;20034;-70
2023/06/17 01:50:03;;;;;;;;;;;;;;;13.41;98.05;95839.75;5062019;28;19925;-69
2023/06/17 01:52:29;;;;;;;;;;;;;;;13.37;98.29;95838.31;5062769;28;19979;-69
2023/06/17 01:54:56;;;;;;;;;;;;;;;13.34;99.59;95837.72;5069045;28;19929;-69
2023/06/17 01:57:22;;;;;;;;;;;;;;;13.32;100.00;95836.06;5071205;28;19925;-70
2023/06/17 01:59:50;;;;;;;;;;;;;;;13.34;99.22;95833.34;5073458;28;20289;-70
2023/06/17 02:02:16;;;;;;;;;;;;;;;13.38;97.08;95831.34;5071774;28;19935;-70
2023/06/17 02:04:43;;;;;;;;;;;;;;;13.37;97.58;95840.09;5067525;28;19939;-71
2023/06/17 02:07:10;;;;;;;;;;;;;;;13.46;97.59;95832.47;5071668;28;20010;-70
2023/06/17 02:09:36;;;;;;;;;;;;;;;13.54;96.35;95827.53;5072823;28;20326;-70
2023/06/17 02:12:02;;;;;;;;;;;;;;;13.61;95.83;95820.09;5071353;28;19931;-70
2023/06/17 02:14:30;;;;;;;;;;;;;;;13.68;94.14;95823.06;5069214;28;20422;-70
2023/06/17 02:16:58;;;;;;;;;;;;;;;13.65;94.41;95821.53;5061656;28;19932;-70
2023/06/17 02:19:28;;;;;;;;;;;;;;;13.42;96.77;95825.84;5067508;28;20005;-70
2023/06/17 02:21:55;;;;;;;;;;;;;;;13.28;97.93;95818.19;5071800;28;19971;-70
2023/06/17 02:24:22;;;;;;;;;;;;;;;13.25;97.38;95823.63;5067814;28;19951;-70
2023/06/17 02:26:49;;;;;;;;;;;;;;;13.16;98.05;95813.84;5072894;28;20020;-70
2023/06/17 02:29:15;;;;;;;;;;;;;;;13.10;97.05;95817.72;5070246;28;19924;-70
2023/06/17 02:31:41;;;;;;;;;;;;;;;12.99;96.88;95813.28;5070327;28;20345;-70
2023/06/17 02:34:10;;;;;;;;;;;;;;;12.83;99.26;95817.94;5071295;28;19981;-70
2023/06/17 02:36:37;;;;;;;;;;;;;;;12.74;100.00;95814.19;5070951;28;20019;-70
2023/06/17 02:39:03;;;;;;;;;;;;;;;12.79;100.00;95809.53;5068953;28;20270;-70
2023/06/17 02:41:29;;;;;;;;;;;;;;;12.87;99.77;95810.72;5064772;28;20043;-70
2023/06/17 02:43:56;;;;;;;;;;;;;;;12.82;100.00;95817.06;5069426;28;19928;-70
2023/06/17 02:46:22;;;;;;;;;;;;;;;12.83;100.00;95807.53;5068504;28;19940;-70
2023/06/17 02:48:48;;;;;;;;;;;;;;;12.87;100.00;95805.53;5070866;28;19936;-70
2023/06/17 02:51:16;;;;;;;;;;;;;;;12.79;100.00;95812.13;5063921;28;19928;-70
2023/06/17 02:53:42;;;;;;;;;;;;;;;12.77;100.00;95813.97;5062652;28;19924;-70
2023/06/17 02:56:08;;;;;;;;;;;;;;;12.73;100.00;95816.91;5069210;28;19924;-70
2023/06/17 02:58:35;;;;;;;;;;;;;;;12.79;100.00;95814.72;5071484;28;20291;-70
2023/06/17 03:01:04;;;;;;;;;;;;;;;12.80;100.00;95810.34;5069837;28;19951;-70
2023/06/17 03:03:34;;;;;;;;;;;;;;;12.66;100.00;95813.91;5070362;28;20023;-70
2023/06/17 03:06:01;;;;;;;;;;;;;;;12.58;100.00;95819.66;5060612;28;19979;-70
2023/06/17 03:08:29;;;;;;;;;;;;;;;12.54;100.00;95814.78;5064937;28;19924;-70
2023/06/17 03:10:55;;;;;;;;;;;;;;;12.47;100.00;95819.56;5059275;28;19929;-70
2023/06/17 03:13:22;;;;;;;;;;;;;;;12.40;100.00;95820.94;5069618;28;19931;-70
2023/06/17 03:15:48;;;;;;;;;;;;;;;12.44;100.00;95822.38;5071779;28;19929;-70
2023/06/17 03:18:15;;;;;;;;;;;;;;;12.49;100.00;95819.44;5068230;28;20087;-70
2023/06/17 03:20:42;;;;;;;;;;;;;;;12.26;100.00;95824.47;5068919;28;19939;-70
2023/06/17 03:23:09;;;;;;;;;;;;;;;12.48;100.00;95813.44;5070657;28;20294;-70
2023/06/17 03:25:37;;;;;;;;;;;;;;;12.45;100.00;95813.63;5069559;28;20382;-70
2023/06/17 03:28:04;;;;;;;;;;;;;;;12.29;100.00;95819.06;5066482;28;19932;-70
2023/06/17 03:30:30;;;;;;;;;;;;;;;12.17;100.00;95819.91;5070185;28;20024;-70
2023/06/17 03:32:58;;;;;;;;;;;;;;;12.17;100.00;95821.69;5071291;28;19947;-70
2023/06/17 03:35:24;;;;;;;;;;;;;;;12.23;100.00;95829.88;5071149;28;20402;-70
2023/06/17 03:37:51;;;;;;;;;;;;;;;12.33;100.00;95822.28;5069399;28;19932;-70
2023/06/17 03:40:17;;;;;;;;;;;;;;;12.32;100.00;95823.22;5066740;28;19935;-70
2023/06/17 03:42:45;;;;;;;;;;;;;;;12.18;100.00;95818.97;5068816;28;19935;-71
2023/06/17 03:45:11;;;;;;;;;;;;;;;12.19;100.00;95832.78;5066190;28;20290;-70
2023/06/17 03:47:37;;;;;;;;;;;;;;;12.26;100.00;95819.28;5071139;28;19924;-70
2023/06/17 03:50:05;;;;;;;;;;;;;;;12.37;100.00;95825.50;5070815;28;20371;-70
2023/06/17 03:52:31;;;;;;;;;;;;;;;12.42;100.00;95818.22;5065028;28;20420;-70
2023/06/17 03:54:57;;;;;;;;;;;;;;;12.29;100.00;95821.66;5061814;28;19955;-70
2023/06/17 03:57:24;;;;;;;;;;;;;;;12.07;100.00;95822.28;5060684;28;19929;-70
2023/06/17 03:59:51;;;;;;;;;;;;;;;12.05;100.00;95829.38;5066655;28;19928;-70
2023/06/17 04:02:17;;;;;;;;;;;;;;;12.20;100.00;95818.84;5070336;28;19928;-70
2023/06/17 04:04:44;;;;;;;;;;;;;;;12.21;100.00;95825.72;5067891;28;19966;-70
2023/06/17 04:07:10;;;;;;;;;;;;;;;12.24;100.00;95825.53;5060140;28;20535;-70
2023/06/17 04:09:37;;;;;;;;;;;;;;;12.17;100.00;95826.88;5073505;28;19931;-70
2023/06/17 04:12:03;;;;;;;;;;;;;;;12.07;100.00;95832.69;5070430;28;19924;-70
2023/06/17 04:14:29;;;;;;;;;;;;;;;12.13;100.00;95823.66;5066872;28;19924;-70
2023/06/17 04:16:59;;;;;;;;;;;;;;;12.10;100.00;95829.88;5067266;28;19971;-70
2023/06/17 04:19:25;;;;;;;;;;;;;;;12.25;100.00;95827.19;5071259;28;19928;-70
2023/06/17 04:21:51;;;;;;;;;;;;;;;12.43;100.00;95832.88;5066358;28;19932;-70
2023/06/17 04:24:18;;;;;;;;;;;;;;;12.46;100.00;95828.31;5074361;28;19967;-70
2023/06/17 04:26:44;;;;;;;;;;;;;;;12.41;100.00;95825.19;5069338;28;19990;-70
2023/06/17 04:29:11;;;;;;;;;;;;;;;12.42;100.00;95828.59;5065149;28;19994;-70
2023/06/17 04:31:40;;;;;;;;;;;;;;;12.47;100.00;95834.31;5063094;28;19924;-70
2023/06/17 04:34:07;;;;;;;;;;;;;;;12.52;100.00;95827.03;5070739;28;19990;-70
2023/06/17 04:36:34;;;;;;;;;;;;;;;12.69;100.00;95831.06;5072969;28;19925;-70
2023/06/17 04:39:00;;;;;;;;;;;;;;;12.69;100.00;95821.50;5070355;28;19932;-70
2023/06/17 04:41:27;;;;;;;;;;;;;;;12.73;100.00;95825.53;5057686;28;19928;-70
2023/06/17 04:43:54;;;;;;;;;;;;;;;12.84;100.00;95824.78;5057328;28;19925;-70
2023/06/17 04:46:20;;;;;;;;;;;;;;;12.99;100.00;95820.25;5062389;28;19932;-70
2023/06/17 04:48:47;;;;;;;;;;;;;;;13.12;100.00;95810.63;5069223;28;20034;-70
2023/06/17 04:51:17;;;;;;;;;;;;;;;13.30;100.00;95811.09;5069564;28;19931;-70
2023/06/17 04:53:44;;;;;;;;;;;;;;;13.36;100.00;95825.44;5060059;28;19939;-70
2023/06/17 04:56:12;;;;;;;;;;;;;;;13.60;100.00;95821.03;5071111;28;19925;-70
2023/06/17 04:58:38;;;;;;;;;;;;;;;13.72;100.00;95816.69;5067376;28;19933;-70
2023/06/17 05:01:04;;;;;;;;;;;;;;;13.85;100.00;95816.59;5062864;28;19929;-70
2023/06/17 05:03:31;;;;;;;;;;;;;;;13.97;100.00;95816.50;5068889;28;19935;-70
2023/06/17 05:05:57;;;;;;;;;;;;;;;14.09;100.00;95821.72;5070967;28;19968;-70
2023/06/17 05:08:25;;;;;;;;;;;;;;;14.08;99.16;95818.28;5076974;28;19931;-70
2023/06/17 05:10:52;;;;;;;;;;;;;;;14.11;98.01;95820.66;5067071;28;20382;-70
2023/06/17 05:13:18;;;;;;;;;;;;;;;14.30;98.54;95820.09;5065677;28;19924;-70
2023/06/17 05:15:45;;;;;;;;;;;;;;;14.31;97.78;95813.94;5070148;28;20019;-70
2023/06/17 05:18:11;;;;;;;;;;;;;;;14.46;97.37;95817.13;5068615;28;20359;-70
2023/06/17 05:20:37;;;;;;;;;;;;;;;14.61;95.74;95821.19;5069353;28;19971;-70
2023/06/17 05:23:04;;;;;;;;;;;;;;;14.63;92.59;95818.47;5065343;28;19925;-70
2023/06/17 05:25:32;;;;;;;;;;;;;;;14.70;92.97;95824.84;5072302;28;19979;-70
2023/06/17 05:27:58;;;;;;;;;;;;;;;14.53;91.60;95828.75;5064659;28;20390;-70
2023/06/17 05:30:24;;;;;;;;;;;;;;;14.39;93.34;95829.00;5071229;28;19947;-70
2023/06/17 05:32:50;;;;;;;;;;;;;;;14.40;92.60;95828.03;5070069;28;20460;-70
2023/06/17 05:35:17;;;;;;;;;;;;;;;14.38;93.53;95827.31;5066914;28;19986;-71
2023/06/17 05:37:43;;;;;;;;;;;;;;;14.54;92.42;95832.22;5063413;28;19924;-70
2023/06/17 05:40:09;;;;;;;;;;;;;;;14.69;91.72;95834.47;5066739;28;19946;-70
2023/06/17 05:42:37;;;;;;;;;;;;;;;14.66;92.01;95833.88;5071568;28;19928;-70
2023/06/17 05:45:03;;;;;;;;;;;;;;;14.86;90.17;95834.91;5069210;28;19932;-70
2023/06/17 05:47:30;;;;;;;;;;;;;;;14.93;90.78;95839.50;5064874;28;19928;-70
2023/06/17 05:49:56;;;;;;;;;;;;;;;15.21;91.31;95830.34;5069860;28;20325;-70
2023/06/17 05:52:23;;;;;;;;;;;;;;;15.39;88.99;95837.63;5072469;28;19931;-70
2023/06/17 05:54:50;;;;;;;;;;;;;;;15.28;88.13;95835.91;5068612;28;19928;-70
2023/06/17 05:57:16;;;;;;;;;;;;;;;15.46;88.14;95839.63;5072295;28;19936;-70
2023/06/17 05:59:43;;;;;;;;;;;;;;;15.67;86.12;95841.47;5073304;28;19924;-71
2023/06/17 06:02:10;;;;;;;;;;;;;;;15.64;85.54;95834.66;5070676;28;19935;-68
2023/06/17 06:04:36;;;;;;;;;;;;;;;15.65;85.49;95840.75;5073213;28;20387;-71
2023/06/17 06:07:02;;;;;;;;;;;;;;;15.82;85.20;95831.53;5071553;28;20038;-72
2023/06/17 06:09:28;;;;;;;;;;;;;;;16.02;84.25;95837.69;5069168;28;20393;-72
2023/06/17 06:11:55;;;;;;;;;;;;;;;16.11;82.72;95834.34;5071834;28;19997;-73
2023/06/17 06:14:21;;;;;;;;;;;;;;;16.45;81.63;95843.59;5069957;28;19928;-72
2023/06/17 06:16:49;;;;;;;;;;;;;;;16.55;81.73;95837.59;5072751;28;19990;-72
2023/06/17 06:19:15;;;;;;;;;;;;;;;16.99;80.84;95843.44;5073073;28;19925;-72
2023/06/17 06:21:41;;;;;;;;;;;;;;;17.33;79.57;95839.47;5071547;28;20401;-71
2023/06/17 06:24:08;;;;;;;;;;;;;;;17.43;76.77;95839.50;5071560;28;19970;-71
2023/06/17 06:26:34;;;;;;;;;;;;;;;17.35;77.06;95836.72;5072500;28;19925;-72
2023/06/17 06:29:00;;;;;;;;;;;;;;;17.42;77.30;95840.44;5066229;28;19935;-72
2023/06/17 06:31:27;;;;;;;;;;;;;;;17.45;77.61;95837.56;5067065;28;20379;-70
2023/06/17 06:33:54;;;;;;;;;;;;;;;17.61;76.56;95850.97;5068612;28;19932;-72
2023/06/17 06:36:20;;;;;;;;;;;;;;;17.75;77.19;95848.88;5065936;28;19932;-71
2023/06/17 06:38:47;;;;;;;;;;;;;;;18.22;74.44;95849.81;5069380;28;19932;-70
2023/06/17 06:41:13;;;;;;;;;;;;;;;18.61;72.90;95844.44;5066135;28;19947;-71
2023/06/17 06:43:39;;;;;;;;;;;;;;;18.96;69.88;95853.47;5069901;28;19970;-71
2023/06/17 06:46:05;;;;;;;;;;;;;;;18.78;69.31;95850.78;5072556;28;19981;-71
2023/06/17 06:48:32;;;;;;;;;;;;;;;18.66;70.15;95844.03;5070266;28;19977;-71
2023/06/17 06:51:01;;;;;;;;;;;;;;;19.07;69.95;95848.00;5070907;28;19970;-70
2023/06/17 06:53:27;;;;;;;;;;;;;;;19.41;68.93;95850.84;5065748;28;19932;-70
2023/06/17 06:55:54;;;;;;;;;;;;;;;19.51;69.72;95853.41;5069727;28;19924;-70
2023/06/17 06:58:20;;;;;;;;;;;;;;;19.51;68.06;95854.22;5067754;28;19930;-70
2023/06/17 07:00:46;;;;;;;;;;;;;;;19.68;66.26;95857.03;5067916;28;19928;-71
2023/06/17 07:03:12;;;;;;;;;;;;;;;20.07;64.39;95847.03;5067393;28;19978;-70
2023/06/17 07:05:38;;;;;;;;;;;;;;;20.51;65.28;95854.91;5072008;28;19928;-71
2023/06/17 07:08:06;;;;;;;;;;;;;;;20.74;59.80;95856.03;5070576;28;20382;-71
2023/06/17 07:10:39;;;;;;;;;;;;;;;20.78;59.65;95859.16;5069959;28;19932;-71
2023/06/17 07:13:05;;;;;;;;;;;;;;;20.94;58.00;95859.22;5067363;28;19925;-71
2023/06/17 07:15:31;;;;;;;;;;;;;;;21.10;59.06;95849.75;5071203;28;19939;-71
2023/06/17 07:17:57;;;;;;;;;;;;;;;21.09;57.75;95846.28;5062782;28;20440;-71
2023/06/17 07:20:24;;;;;;;;;;;;;;;21.11;56.28;95854.88;5063210;28;20364;-71
2023/06/17 07:22:50;;;;;;;;;;;;;;;21.30;54.93;95855.59;5060969;28;19940;-71
2023/06/17 07:25:17;;;;;;;;;;;;;;;21.61;54.10;95858.47;5069465;28;19974;-71
2023/06/17 07:27:44;;;;;;;;;;;;;;;21.68;56.28;95849.75;5069285;28;20498;-71
2023/06/17 07:30:10;;;;;;;;;;;;;;;21.89;53.84;95845.84;5068564;28;20337;-71
2023/06/17 07:32:37;;;;;;;;;;;;;;;22.01;53.03;95851.59;5071031;28;19928;-71
2023/06/17 07:35:04;;;;;;;;;;;;;;;22.22;52.14;95842.22;5071539;28;20015;-71
2023/06/17 07:37:30;;;;;;;;;;;;;;;22.20;50.09;95840.72;5071579;28;20332;-71
2023/06/17 07:39:57;;;;;;;;;;;;;;;22.42;49.38;95828.66;5070023;28;19925;-71
2023/06/17 07:42:24;;;;;;;;;;;;;;;22.58;50.60;95833.06;5070941;28;20015;-71
2023/06/17 07:44:50;;;;;;;;;;;;;;;23.06;46.23;95826.00;5070634;28;20291;-69
2023/06/17 07:47:17;;;;;;;;;;;;;;;23.15;43.14;95840.84;5071249;28;20337;-69
2023/06/17 07:49:44;;;;;;;;;;;;;;;23.54;43.24;95834.66;5070834;28;19932;-72
2023/06/17 07:52:10;;;;;;;;;;;;;;;23.86;42.74;95831.81;5070138;28;19924;-72
2023/06/17 07:54:36;;;;;;;;;;;;;;;24.03;39.02;95832.53;5065889;28;20378;-72
2023/06/17 07:57:03;;;;;;;;;;;;;;;24.29;38.54;95826.84;5063206;28;19967;-73
2023/06/17 07:59:31;;;;;;;;;;;;;;;24.47;36.69;95825.69;5070296;28;20019;-74
2023/06/17 08:01:57;;;;;;;;;;;;;;;24.73;38.50;95822.59;5066311;28;20029;-75
2023/06/17 08:04:23;;;;;;;;;;;;;;;24.91;37.71;95823.03;5071624;28;19924;-74
2023/06/17 08:06:50;;;;;;;;;;;;;;;24.99;38.18;95828.28;5067705;28;19978;-74
2023/06/17 08:09:17;;;;;;;;;;;;;;;25.39;37.40;95833.25;5069156;28;19924;-74
2023/06/17 08:11:43;;;;;;;;;;;;;;;25.31;36.12;95824.38;5063671;28;19925;-74
2023/06/17 08:14:09;;;;;;;;;;;;;;;25.52;35.01;95814.84;5070910;28;20441;-74
2023/06/17 08:16:37;;;;;;;;;;;;;;;25.44;33.62;95812.28;5070834;28;20027;-74
2023/06/17 08:19:03;;;;;;;;;;;;;;;25.46;35.92;95807.63;5064719;28;19924;-74
2023/06/17 08:21:29;;;;;;;;;;;;;;;25.52;37.80;95806.88;5069705;28;20535;-74
2023/06/17 08:23:55;;;;;;;;;;;;;;;25.69;34.87;95815.41;5073051;28;19928;-75
2023/06/17 08:26:23;;;;;;;;;;;;;;;25.69;37.89;95804.78;5069110;28;20134;-74
2023/06/17 08:28:49;;;;;;;;;;;;;;;24.65;34.33;95804.16;5070158;28;19939;-74
2023/06/17 08:31:16;;;;;;;;;;;;;;;24.45;33.71;95804.69;5068092;28;20466;-74
2023/06/17 08:33:44;;;;;;;;;;;;;;;24.79;33.97;95811.28;5070618;28;19974;-74
2023/06/17 08:36:10;;;;;;;;;;;;;;;25.29;36.69;95807.88;5071174;28;20402;-74
2023/06/17 08:38:37;;;;;;;;;;;;;;;25.06;32.00;95807.13;5070490;28;19924;-74
2023/06/17 08:41:03;;;;;;;;;;;;;;;24.68;32.63;95809.91;5062621;28;19924;-74
2023/06/17 08:43:31;;;;;;;;;;;;;;;24.33;33.82;95804.31;5069071;28;19928;-74
2023/06/17 08:45:58;;;;;;;;;;;;;;;24.63;36.26;95807.00;5070533;28;19931;-74
2023/06/17 08:48:24;;;;;;;;;;;;;;;25.12;37.24;95801.13;5070387;28;19932;-74
2023/06/17 08:50:53;;;;;;;;;;;;;;;25.39;32.95;95802.25;5070075;28;19932;-75
2023/06/17 08:53:19;;;;;;;;;;;;;;;25.02;32.33;95803.22;5070477;28;20443;-74
2023/06/17 08:55:46;;;;;;;;;;;;;;;24.39;31.89;95808.88;5065847;28;19982;-74
2023/06/17 08:58:12;;;;;;;;;;;;;;;24.39;34.38;95819.47;5065703;28;19936;-74
2023/06/17 09:00:39;;;;;;;;;;;;;;;24.51;32.42;95808.44;5072252;28;19970;-74
2023/06/17 09:03:08;;;;;;;;;;;;;;;24.82;36.39;95803.78;5072937;28;19928;-74
2023/06/17 09:05:34;;;;;;;;;;;;;;;24.77;34.02;95811.47;5069788;28;19970;-74
2023/06/17 09:08:02;;;;;;;;;;;;;;;24.74;33.82;95809.19;5067766;28;19943;-74
2023/06/17 09:10:29;;;;;;;;;;;;;;;24.35;32.23;95820.00;5062365;28;19932;-74
2023/06/17 09:12:58;;;;;;;;;;;;;;;24.08;31.89;95808.19;5073609;28;20422;-72
2023/06/17 09:15:24;;;;;;;;;;;;;;;24.29;32.88;95815.44;5073446;28;20398;-73
2023/06/17 09:17:53;;;;;;;;;;;;;;;24.50;31.06;95807.63;5071223;28;20275;-73
2023/06/17 09:20:19;;;;;;;;;;;;;;;24.30;31.13;95812.59;5073117;28;19924;-73
2023/06/17 09:22:46;;;;;;;;;;;;;;;24.17;31.90;95807.09;5066580;28;19939;-73
2023/06/17 09:25:15;;;;;;;;;;;;;;;24.14;33.29;95807.47;5073587;28;19932;-73
2023/06/17 09:27:45;;;;;;;;;;;;;;;24.09;32.77;95805.34;5073296;28;20406;-73
2023/06/17 09:30:13;;;;;;;;;;;;;;;24.45;31.96;95804.69;5073603;28;19924;-73
2023/06/17 09:32:40;;;;;;;;;;;;;;;24.84;30.47;95808.91;5065940;28;19933;-74
2023/06/17 09:35:07;;;;;;;;;;;;;;;25.20;30.37;95792.25;5073879;28;20007;-73
2023/06/17 09:37:34;;;;;;;;;;;;;;;25.62;32.02;95807.38;5072430;28;19929;-74
2023/06/17 09:40:02;;;;;;;;;;;;;;;25.34;30.54;95804.66;5069240;28;19932;-74
2023/06/17 09:42:31;;;;;;;;;;;;;;;24.84;31.95;95803.59;5071321;28;19924;-74
2023/06/17 09:45:03;;;;;;;;;;;;;;;24.81;33.49;95799.50;5060379;28;19925;-73
2023/06/17 09:47:33;;;;;;;;;;;;;;;25.22;36.20;95804.31;5071455;28;19982;-73
2023/06/17 09:50:02;;;;;;;;;;;;;;;24.71;32.21;95803.44;5072737;28;20047;-73
2023/06/17 09:52:29;;;;;;;;;;;;;;;24.34;32.66;95805.94;5071226;28;19932;-73
2023/06/17 09:54:56;;;;;;;;;;;;;;;24.35;32.53;95798.81;5072003;28;19935;-73
2023/06/17 09:57:23;;;;;;;;;;;;;;;24.56;30.34;95798.13;5070717;28;19986;-73
2023/06/17 09:59:54;;;;;;;;;;;;;;;24.87;30.26;95795.28;5071965;28;19924;-73
2023/06/17 10:02:21;;;;;;;;;;;;;;;25.03;30.06;95794.25;5071953;28;19963;-73
2023/06/17 10:04:47;;;;;;;;;;;;;;;25.70;32.67;95778.09;5071971;28;19932;-73
2023/06/17 10:07:15;;;;;;;;;;;;;;;25.61;29.21;95784.53;5067221;28;20303;-73
2023/06/17 10:09:41;;;;;;;;;;;;;;;25.75;29.29;95775.69;5069718;28;19975;-74
2023/06/17 10:12:08;;;;;;;;;;;;;;;26.13;30.63;95771.94;5067247;28;19928;-69
2023/06/17 10:14:35;;;;;;;;;;;;;;;25.55;29.49;95780.81;5069732;28;19929;-73
2023/06/17 10:17:04;;;;;;;;;;;;;;;25.34;30.53;95784.25;5073056;28;20390;-73
2023/06/17 10:19:31;;;;;;;;;;;;;;;25.22;29.40;95775.16;5072442;28;19929;-73
2023/06/17 10:22:00;;;;;;;;;;;;;;;25.09;30.60;95772.31;5072428;28;19933;-73
2023/06/17 10:24:27;;;;;;;;;;;;;;;25.70;31.62;95778.09;5073193;28;19935;-73
2023/06/17 10:26:54;;;;;;;;;;;;;;;25.97;29.33;95773.88;5071288;28;19928;-73
2023/06/17 10:29:20;;;;;;;;;;;;;;;26.04;29.11;95781.88;5068570;28;19931;-73
2023/06/17 10:31:46;;;;;;;;;;;;;;;26.08;29.54;95775.19;5069180;28;20023;-73
2023/06/17 10:34:16;;;;;;;;;;;;;;;26.03;31.56;95772.25;5072546;28;19932;-73
2023/06/17 10:36:42;;;;;;;;;;;;;;;26.06;30.85;95771.88;5061327;28;19937;-73
2023/06/17 10:39:10;;;;;;;;;;;;;;;25.85;31.23;95767.44;5066496;28;19978;-73
2023/06/17 10:41:57;;;;;;;;;;;;;;;25.66;30.42;95758.28;5068380;28;19931;-73
2023/06/17 10:44:41;;;;;;;;;;;;;;;25.88;32.86;95766.22;5068460;28;19928;-73
2023/06/17 10:47:15;;;;;;;;;;;;;;;26.04;31.09;95758.00;5071510;28;19932;-73
2023/06/17 10:49:43;;;;;;;;;;;;;;;26.06;29.23;95766.56;5069677;28;20440;-73
2023/06/17 10:52:12;;;;;;;;;;;;;;;25.61;29.72;95765.97;5067039;28;19924;-73
2023/06/17 10:54:44;;;;;;;;;;;;;;;25.13;31.08;95770.16;5067847;28;19928;-73
2023/06/17 10:57:11;;;;;;;;;;;;;;;25.01;31.59;95770.59;5065637;28;19936;-73
2023/06/17 10:59:37;;;;;;;;;;;;;;;25.03;31.22;95767.75;5065244;28;19931;-73
2023/06/17 11:02:06;;;;;;;;;;;;;;;24.91;30.14;95763.94;5072489;28;19951;-73
2023/06/17 11:04:32;;;;;;;;;;;;;;;25.32;30.86;95759.75;5070198;28;19968;-73
2023/06/17 11:07:01;;;;;;;;;;;;;;;25.32;30.31;95758.94;5072589;28;19928;-73
2023/06/17 11:09:27;;;;;;;;;;;;;;;25.44;30.24;95759.25;5067442;28;19970;-74
2023/06/17 11:11:53;;;;;;;;;;;;;;;25.68;29.17;95758.88;5069396;28;19925;-73
2023/06/17 11:14:20;;;;;;;;;;;;;;;25.47;29.25;95754.41;5073195;28;20393;-74
2023/06/17 11:16:46;;;;;;;;;;;;;;;25.78;30.37;95758.56;5071268;28;19928;-74
2023/06/17 11:19:13;;;;;;;;;;;;;;;26.03;29.88;95759.00;5067910;28;19947;-74
2023/06/17 11:21:40;;;;;;;;;;;;;;;25.83;29.15;95759.66;5073185;28;19931;-74
2023/06/17 11:24:07;;;;;;;;;;;;;;;26.03;29.58;95754.53;5071443;28;19945;-73
2023/06/17 11:26:34;;;;;;;;;;;;;;;26.01;29.15;95753.88;5071878;28;19935;-74
2023/06/17 11:29:01;;;;;;;;;;;;;;;25.86;27.54;95755.00;5072583;28;19986;-69
2023/06/17 11:31:28;;;;;;;;;;;;;;;26.04;29.60;95747.38;5065429;28;19962;-72
2023/06/17 11:33:59;;;;;;;;;;;;;;;26.05;26.71;95743.69;5067857;28;19935;-73
2023/06/17 11:36:25;;;;;;;;;;;;;;;26.43;27.87;95738.84;5065475;28;19931;-73
2023/06/17 11:38:52;;;;;;;;;;;;;;;26.68;26.44;95741.06;5068266;28;19925;-73
2023/06/17 11:41:20;;;;;;;;;;;;;;;26.27;26.14;95739.16;5065856;28;19929;-73
2023/06/17 11:43:46;;;;;;;;;;;;;;;26.30;25.65;95730.81;5068915;28;19931;-74
2023/06/17 11:46:13;;;;;;;;;;;;;;;26.52;26.04;95743.03;5067550;28;19931;-73
2023/06/17 11:48:40;;;;;;;;;;;;;;;25.90;28.11;95735.03;5066787;28;20382;-73
2023/06/17 11:51:06;;;;;;;;;;;;;;;26.18;29.27;95735.84;5062223;28;19951;-73
2023/06/17 11:53:34;;;;;;;;;;;;;;;25.94;29.08;95744.25;5070865;28;19982;-73
2023/06/17 11:56:01;;;;;;;;;;;;;;;25.82;28.58;95730.69;5071576;28;20333;-73
2023/06/17 11:58:29;;;;;;;;;;;;;;;25.87;27.73;95740.72;5062336;28;19932;-74
2023/06/17 12:00:58;;;;;;;;;;;;;;;25.79;27.27;95739.00;5065377;28;20345;-72
2023/06/17 12:03:25;;;;;;;;;;;;;;;25.77;27.75;95744.50;5069579;28;19935;-73
2023/06/17 12:05:51;;;;;;;;;;;;;;;25.92;27.40;95735.63;5070723;28;19928;-74
2023/06/17 12:08:18;;;;;;;;;;;;;;;26.10;26.70;95732.50;5067149;28;19924;-72
2023/06/17 12:10:44;;;;;;;;;;;;;;;26.13;28.48;95729.47;5056299;28;19932;-72
2023/06/17 12:13:12;;;;;;;;;;;;;;;25.92;27.70;95728.53;5062956;28;19936;-72
2023/06/17 12:15:40;;;;;;;;;;;;;;;25.82;28.01;95728.03;5064738;28;19931;-71
2023/06/17 12:18:10;;;;;;;;;;;;;;;25.95;27.22;95727.28;5063535;28;19939;-73
2023/06/17 12:20:37;;;;;;;;;;;;;;;25.91;27.53;95739.31;5066640;28;19960;-73
2023/06/17 12:23:03;;;;;;;;;;;;;;;25.98;27.58;95735.69;5057907;28;20011;-72
2023/06/17 12:25:32;;;;;;;;;;;;;;;25.99;25.94;95728.53;5068343;28;19931;-72
2023/06/17 12:27:59;;;;;;;;;;;;;;;26.10;26.68;95728.00;5065267;28;20333;-72
2023/06/17 12:30:25;;;;;;;;;;;;;;;26.23;25.33;95719.31;5061329;28;19936;-72
2023/06/17 12:32:53;;;;;;;;;;;;;;;26.40;25.71;95719.81;5062525;28;19970;-72
2023/06/17 12:35:22;;;;;;;;;;;;;;;26.30;25.97;95717.53;5066002;28;19928;-73
2023/06/17 12:37:50;;;;;;;;;;;;;;;26.12;25.51;95710.06;5059479;28;20357;-72
2023/06/17 12:40:16;;;;;;;;;;;;;;;26.19;24.95;95708.28;5063337;28;19951;-72
2023/06/17 12:42:43;;;;;;;;;;;;;;;25.85;24.52;95708.25;5060538;28;19947;-72
2023/06/17 12:45:10;;;;;;;;;;;;;;;26.25;27.72;95702.19;5068584;28;19924;-71